sensor_id;sensor_type;location;lat;lon;timestamp;temperature;humidity
13591;DHT22;6866;50.778;7.206;2023-03-23T00:01:28;14.00;94.20
13591;DHT22;6866;50.778;7.206;2023-03-23T00:03:58;14.00;94.30
13591;DHT22;6866;50.778;7.206;2023-03-23T00:06:27;14.00;94.60
13591;DHT22;6866;50.778;7.206;2023-03-23T00:08:54;14.00;94.20
13591;DHT22;6866;50.778;7.206;2023-03-23T00:11:26;14.00;94.40
13591;DHT22;6866;50.778;7.206;2023-03-23T00:13:55;14.00;94.70
13591;DHT22;6866;50.778;7.206;2023-03-23T00:16:24;14.00;94.60
13591;DHT22;6866;50.778;7.206;2023-03-23T00:19:05;14.00;94.00
13591;DHT22;6866;50.778;7.206;2023-03-23T00:21:33;14.00;94.30
13591;DHT22;6866;50.778;7.206;2023-03-23T00:24:07;14.00;94.40
13591;DHT22;6866;50.778;7.206;2023-03-23T00:26:35;14.00;94.60
13591;DHT22;6866;50.778;7.206;2023-03-23T00:29:03;14.00;94.60
13591;DHT22;6866;50.778;7.206;2023-03-23T00:31:29;14.00;94.50
13591;DHT22;6866;50.778;7.206;2023-03-23T00:33:59;13.90;95.20
13591;DHT22;6866;50.778;7.206;2023-03-23T00:36:27;14.00;94.90
13591;DHT22;6866;50.778;7.206;2023-03-23T00:38:53;14.00;95.10
13591;DHT22;6866;50.778;7.206;2023-03-23T00:41:19;14.00;95.20
13591;DHT22;6866;50.778;7.206;2023-03-23T00:43:44;14.00;95.50
13591;DHT22;6866;50.778;7.206;2023-03-23T00:46:10;13.90;95.30
13591;DHT22;6866;50.778;7.206;2023-03-23T00:48:36;13.90;94.90
13591;DHT22;6866;50.778;7.206;2023-03-23T00:51:10;13.90;95.20
13591;DHT22;6866;50.778;7.206;2023-03-23T00:53:37;13.90;95.50
13591;DHT22;6866;50.778;7.206;2023-03-23T00:56:03;13.90;95.20
13591;DHT22;6866;50.778;7.206;2023-03-23T00:58:28;13.90;95.80
13591;DHT22;6866;50.778;7.206;2023-03-23T01:00:54;13.90;95.60
13591;DHT22;6866;50.778;7.206;2023-03-23T01:03:19;13.90;95.60
13591;DHT22;6866;50.778;7.206;2023-03-23T01:05:45;13.80;95.70
13591;DHT22;6866;50.778;7.206;2023-03-23T01:08:17;13.90;96.20
13591;DHT22;6866;50.778;7.206;2023-03-23T01:10:44;13.90;95.50
13591;DHT22;6866;50.778;7.206;2023-03-23T01:13:10;13.90;96.00
13591;DHT22;6866;50.778;7.206;2023-03-23T01:15:36;13.80;95.50
13591;DHT22;6866;50.778;7.206;2023-03-23T01:18:01;13.80;96.20
13591;DHT22;6866;50.778;7.206;2023-03-23T01:20:27;13.80;96.50
13591;DHT22;6866;50.778;7.206;2023-03-23T01:22:57;13.80;96.50
13591;DHT22;6866;50.778;7.206;2023-03-23T01:25:27;13.70;96.90
13591;DHT22;6866;50.778;7.206;2023-03-23T01:27:53;13.80;96.20
13591;DHT22;6866;50.778;7.206;2023-03-23T01:30:19;13.80;96.60
13591;DHT22;6866;50.778;7.206;2023-03-23T01:32:45;13.70;96.70
13591;DHT22;6866;50.778;7.206;2023-03-23T01:35:12;13.70;97.30
13591;DHT22;6866;50.778;7.206;2023-03-23T01:37:38;13.70;97.70
13591;DHT22;6866;50.778;7.206;2023-03-23T01:40:04;13.70;98.00
13591;DHT22;6866;50.778;7.206;2023-03-23T01:42:32;13.70;98.10
13591;DHT22;6866;50.778;7.206;2023-03-23T01:45:20;13.60;97.80
13591;DHT22;6866;50.778;7.206;2023-03-23T01:48:10;13.70;98.30
13591;DHT22;6866;50.778;7.206;2023-03-23T01:51:22;13.60;98.30
13591;DHT22;6866;50.778;7.206;2023-03-23T01:53:38;13.60;98.40
13591;DHT22;6866;50.778;7.206;2023-03-23T01:56:07;13.60;98.40
13591;DHT22;6866;50.778;7.206;2023-03-23T01:58:34;13.60;98.70
13591;DHT22;6866;50.778;7.206;2023-03-23T02:03:40;13.50;99.20
13591;DHT22;6866;50.778;7.206;2023-03-23T02:06:07;13.50;98.90
13591;DHT22;6866;50.778;7.206;2023-03-23T02:08:33;13.50;98.70
13591;DHT22;6866;50.778;7.206;2023-03-23T02:10:59;13.50;98.80
13591;DHT22;6866;50.778;7.206;2023-03-23T02:13:27;13.50;99.90
13591;DHT22;6866;50.778;7.206;2023-03-23T02:24:57;13.30;99.10
13591;DHT22;6866;50.778;7.206;2023-03-23T02:30:11;13.30;99.60
13591;DHT22;6866;50.778;7.206;2023-03-23T02:33:06;13.40;99.00
13591;DHT22;6866;50.778;7.206;2023-03-23T02:35:46;13.40;99.20
13591;DHT22;6866;50.778;7.206;2023-03-23T02:38:20;13.30;99.70
13591;DHT22;6866;50.778;7.206;2023-03-23T02:40:47;13.30;99.60
13591;DHT22;6866;50.778;7.206;2023-03-23T02:43:16;13.30;99.50
13591;DHT22;6866;50.778;7.206;2023-03-23T02:45:44;13.40;99.20
13591;DHT22;6866;50.778;7.206;2023-03-23T02:48:13;13.30;99.60
13591;DHT22;6866;50.778;7.206;2023-03-23T02:50:42;13.30;99.40
13591;DHT22;6866;50.778;7.206;2023-03-23T02:53:10;13.30;99.50
13591;DHT22;6866;50.778;7.206;2023-03-23T02:55:39;13.30;99.20
13591;DHT22;6866;50.778;7.206;2023-03-23T02:58:10;13.30;99.90
13591;DHT22;6866;50.778;7.206;2023-03-23T03:00:37;13.20;99.90
13591;DHT22;6866;50.778;7.206;2023-03-23T03:03:03;13.20;99.90
13591;DHT22;6866;50.778;7.206;2023-03-23T03:05:53;13.10;99.90
13591;DHT22;6866;50.778;7.206;2023-03-23T03:08:45;13.00;99.90
13591;DHT22;6866;50.778;7.206;2023-03-23T03:11:17;13.00;99.90
13591;DHT22;6866;50.778;7.206;2023-03-23T03:13:50;13.00;99.90
13591;DHT22;6866;50.778;7.206;2023-03-23T03:19:10;12.90;99.90
13591;DHT22;6866;50.778;7.206;2023-03-23T03:21:40;12.90;99.90
13591;DHT22;6866;50.778;7.206;2023-03-23T03:24:08;12.90;99.90
13591;DHT22;6866;50.778;7.206;2023-03-23T03:26:41;12.90;99.90
13591;DHT22;6866;50.778;7.206;2023-03-23T03:29:14;12.90;99.90
13591;DHT22;6866;50.778;7.206;2023-03-23T03:31:43;12.90;99.90
13591;DHT22;6866;50.778;7.206;2023-03-23T03:34:11;12.90;99.90
13591;DHT22;6866;50.778;7.206;2023-03-23T03:36:36;12.80;99.90
13591;DHT22;6866;50.778;7.206;2023-03-23T03:39:08;12.80;99.90
13591;DHT22;6866;50.778;7.206;2023-03-23T03:41:36;12.90;99.90
13591;DHT22;6866;50.778;7.206;2023-03-23T03:44:03;12.90;99.90
13591;DHT22;6866;50.778;7.206;2023-03-23T03:46:28;12.90;99.90
13591;DHT22;6866;50.778;7.206;2023-03-23T03:48:57;12.90;99.90
13591;DHT22;6866;50.778;7.206;2023-03-23T03:51:23;12.90;99.90
13591;DHT22;6866;50.778;7.206;2023-03-23T03:53:49;12.90;99.90
13591;DHT22;6866;50.778;7.206;2023-03-23T03:56:15;12.90;99.90
13591;DHT22;6866;50.778;7.206;2023-03-23T03:58:41;12.90;99.90
13591;DHT22;6866;50.778;7.206;2023-03-23T04:01:09;12.90;99.90
13591;DHT22;6866;50.778;7.206;2023-03-23T04:03:39;12.90;99.90
13591;DHT22;6866;50.778;7.206;2023-03-23T04:06:05;12.90;99.90
13591;DHT22;6866;50.778;7.206;2023-03-23T04:08:31;13.00;99.90
13591;DHT22;6866;50.778;7.206;2023-03-23T04:10:57;12.90;99.90
13591;DHT22;6866;50.778;7.206;2023-03-23T04:13:23;13.00;99.90
13591;DHT22;6866;50.778;7.206;2023-03-23T04:15:49;13.00;99.90
13591;DHT22;6866;50.778;7.206;2023-03-23T04:18:15;12.90;99.90
13591;DHT22;6866;50.778;7.206;2023-03-23T04:20:43;12.90;99.90
13591;DHT22;6866;50.778;7.206;2023-03-23T04:23:09;13.00;99.90
13591;DHT22;6866;50.778;7.206;2023-03-23T04:25:35;13.00;99.90
13591;DHT22;6866;50.778;7.206;2023-03-23T04:28:01;13.00;99.90
13591;DHT22;6866;50.778;7.206;2023-03-23T04:30:27;12.90;99.90
13591;DHT22;6866;50.778;7.206;2023-03-23T04:32:54;12.90;99.90
13591;DHT22;6866;50.778;7.206;2023-03-23T04:35:22;12.90;99.90
13591;DHT22;6866;50.778;7.206;2023-03-23T04:37:50;12.90;99.90
13591;DHT22;6866;50.778;7.206;2023-03-23T04:40:16;12.90;99.90
13591;DHT22;6866;50.778;7.206;2023-03-23T04:42:43;12.90;99.90
13591;DHT22;6866;50.778;7.206;2023-03-23T04:45:15;12.80;99.90
13591;DHT22;6866;50.778;7.206;2023-03-23T04:47:41;12.80;99.90
13591;DHT22;6866;50.778;7.206;2023-03-23T04:50:12;12.80;99.90
13591;DHT22;6866;50.778;7.206;2023-03-23T04:52:41;12.80;99.90
13591;DHT22;6866;50.778;7.206;2023-03-23T04:55:10;12.80;99.90
13591;DHT22;6866;50.778;7.206;2023-03-23T04:57:36;12.80;99.90
13591;DHT22;6866;50.778;7.206;2023-03-23T05:00:03;12.80;99.90
13591;DHT22;6866;50.778;7.206;2023-03-23T05:02:37;12.80;99.90
13591;DHT22;6866;50.778;7.206;2023-03-23T05:05:05;12.80;99.90
13591;DHT22;6866;50.778;7.206;2023-03-23T05:07:31;12.80;99.90
13591;DHT22;6866;50.778;7.206;2023-03-23T05:09:57;12.80;99.90
13591;DHT22;6866;50.778;7.206;2023-03-23T05:12:22;12.80;99.90
13591;DHT22;6866;50.778;7.206;2023-03-23T05:14:48;12.80;99.90
13591;DHT22;6866;50.778;7.206;2023-03-23T05:17:14;12.80;99.90
13591;DHT22;6866;50.778;7.206;2023-03-23T05:19:42;12.70;99.90
13591;DHT22;6866;50.778;7.206;2023-03-23T05:22:10;12.70;99.90
13591;DHT22;6866;50.778;7.206;2023-03-23T05:24:38;12.70;99.90
13591;DHT22;6866;50.778;7.206;2023-03-23T05:27:03;12.70;99.90
13591;DHT22;6866;50.778;7.206;2023-03-23T05:29:29;12.70;99.90
13591;DHT22;6866;50.778;7.206;2023-03-23T05:31:59;12.70;99.90
13591;DHT22;6866;50.778;7.206;2023-03-23T05:34:28;12.70;99.90
13591;DHT22;6866;50.778;7.206;2023-03-23T05:36:54;12.70;99.90
13591;DHT22;6866;50.778;7.206;2023-03-23T05:39:22;12.80;99.90
13591;DHT22;6866;50.778;7.206;2023-03-23T05:41:48;12.80;99.90
13591;DHT22;6866;50.778;7.206;2023-03-23T05:44:13;12.70;99.90
13591;DHT22;6866;50.778;7.206;2023-03-23T05:46:40;12.80;99.90
13591;DHT22;6866;50.778;7.206;2023-03-23T05:49:05;12.80;99.90
13591;DHT22;6866;50.778;7.206;2023-03-23T05:51:31;12.80;99.90
13591;DHT22;6866;50.778;7.206;2023-03-23T05:53:57;12.80;99.90
13591;DHT22;6866;50.778;7.206;2023-03-23T05:56:23;12.90;99.90
13591;DHT22;6866;50.778;7.206;2023-03-23T05:58:48;12.80;99.90
13591;DHT22;6866;50.778;7.206;2023-03-23T06:01:14;12.90;99.90
13591;DHT22;6866;50.778;7.206;2023-03-23T06:03:41;12.90;99.90
13591;DHT22;6866;50.778;7.206;2023-03-23T06:06:10;12.90;99.90
13591;DHT22;6866;50.778;7.206;2023-03-23T06:08:36;12.90;99.90
13591;DHT22;6866;50.778;7.206;2023-03-23T06:11:03;12.90;99.90
13591;DHT22;6866;50.778;7.206;2023-03-23T06:13:28;13.00;99.90
13591;DHT22;6866;50.778;7.206;2023-03-23T06:15:57;12.90;99.90
13591;DHT22;6866;50.778;7.206;2023-03-23T06:18:23;13.00;99.90
13591;DHT22;6866;50.778;7.206;2023-03-23T06:20:49;13.00;99.90
13591;DHT22;6866;50.778;7.206;2023-03-23T06:23:15;13.00;99.90
13591;DHT22;6866;50.778;7.206;2023-03-23T06:25:40;13.10;99.90
13591;DHT22;6866;50.778;7.206;2023-03-23T06:28:06;13.10;99.90
13591;DHT22;6866;50.778;7.206;2023-03-23T06:30:31;13.10;99.90
13591;DHT22;6866;50.778;7.206;2023-03-23T06:32:57;13.20;99.90
13591;DHT22;6866;50.778;7.206;2023-03-23T06:35:23;13.20;99.90
13591;DHT22;6866;50.778;7.206;2023-03-23T06:37:49;13.20;99.90
13591;DHT22;6866;50.778;7.206;2023-03-23T06:40:14;13.30;99.90
13591;DHT22;6866;50.778;7.206;2023-03-23T06:42:43;13.30;99.90
13591;DHT22;6866;50.778;7.206;2023-03-23T06:45:09;13.30;99.90
13591;DHT22;6866;50.778;7.206;2023-03-23T06:47:35;13.40;99.90
13591;DHT22;6866;50.778;7.206;2023-03-23T06:50:00;13.40;99.90
13591;DHT22;6866;50.778;7.206;2023-03-23T06:52:26;13.40;99.90
13591;DHT22;6866;50.778;7.206;2023-03-23T06:54:52;13.40;99.90
13591;DHT22;6866;50.778;7.206;2023-03-23T06:57:19;13.40;99.90
13591;DHT22;6866;50.778;7.206;2023-03-23T06:59:45;13.50;99.90
13591;DHT22;6866;50.778;7.206;2023-03-23T07:02:12;13.50;99.90
13591;DHT22;6866;50.778;7.206;2023-03-23T07:04:39;13.50;99.90
13591;DHT22;6866;50.778;7.206;2023-03-23T07:07:07;13.50;99.80
13591;DHT22;6866;50.778;7.206;2023-03-23T07:09:33;13.50;99.80
13591;DHT22;6866;50.778;7.206;2023-03-23T07:11:58;13.50;99.90
13591;DHT22;6866;50.778;7.206;2023-03-23T07:14:24;13.50;99.90
13591;DHT22;6866;50.778;7.206;2023-03-23T07:16:50;13.40;99.90
13591;DHT22;6866;50.778;7.206;2023-03-23T07:19:16;13.50;99.90
13591;DHT22;6866;50.778;7.206;2023-03-23T07:21:41;13.60;99.90
13591;DHT22;6866;50.778;7.206;2023-03-23T07:24:13;13.60;99.30
13591;DHT22;6866;50.778;7.206;2023-03-23T07:26:41;13.60;99.30
13591;DHT22;6866;50.778;7.206;2023-03-23T07:29:08;13.60;99.20
13591;DHT22;6866;50.778;7.206;2023-03-23T07:31:34;13.70;99.20
13591;DHT22;6866;50.778;7.206;2023-03-23T07:34:00;13.70;98.90
13591;DHT22;6866;50.778;7.206;2023-03-23T07:36:26;13.80;98.30
13591;DHT22;6866;50.778;7.206;2023-03-23T07:38:52;13.80;98.00
13591;DHT22;6866;50.778;7.206;2023-03-23T07:41:19;13.80;97.60
13591;DHT22;6866;50.778;7.206;2023-03-23T07:43:44;13.90;97.90
13591;DHT22;6866;50.778;7.206;2023-03-23T07:46:11;13.90;97.20
13591;DHT22;6866;50.778;7.206;2023-03-23T07:48:37;13.90;97.10
13591;DHT22;6866;50.778;7.206;2023-03-23T07:51:03;13.90;96.50
13591;DHT22;6866;50.778;7.206;2023-03-23T07:53:29;14.00;96.80
13591;DHT22;6866;50.778;7.206;2023-03-23T07:55:54;14.00;96.20
13591;DHT22;6866;50.778;7.206;2023-03-23T07:58:20;14.10;95.50
13591;DHT22;6866;50.778;7.206;2023-03-23T08:00:46;14.10;95.10
13591;DHT22;6866;50.778;7.206;2023-03-23T08:03:14;14.00;94.70
13591;DHT22;6866;50.778;7.206;2023-03-23T08:05:40;14.10;94.50
13591;DHT22;6866;50.778;7.206;2023-03-23T08:08:08;14.10;94.20
13591;DHT22;6866;50.778;7.206;2023-03-23T08:10:34;14.20;93.40
13591;DHT22;6866;50.778;7.206;2023-03-23T08:13:00;14.20;92.50
13591;DHT22;6866;50.778;7.206;2023-03-23T08:15:26;14.20;93.80
13591;DHT22;6866;50.778;7.206;2023-03-23T08:17:52;14.30;92.20
13591;DHT22;6866;50.778;7.206;2023-03-23T08:20:18;14.40;92.00
13591;DHT22;6866;50.778;7.206;2023-03-23T08:22:49;14.40;90.80
13591;DHT22;6866;50.778;7.206;2023-03-23T08:25:15;14.50;91.80
13591;DHT22;6866;50.778;7.206;2023-03-23T08:27:42;14.40;91.40
13591;DHT22;6866;50.778;7.206;2023-03-23T08:30:11;14.50;91.20
13591;DHT22;6866;50.778;7.206;2023-03-23T08:32:38;14.50;90.70
13591;DHT22;6866;50.778;7.206;2023-03-23T08:35:04;14.40;89.10
13591;DHT22;6866;50.778;7.206;2023-03-23T08:37:29;14.50;89.00
13591;DHT22;6866;50.778;7.206;2023-03-23T08:39:56;14.50;90.10
13591;DHT22;6866;50.778;7.206;2023-03-23T08:42:25;14.50;90.40
13591;DHT22;6866;50.778;7.206;2023-03-23T08:44:51;14.40;90.60
13591;DHT22;6866;50.778;7.206;2023-03-23T08:47:17;14.50;89.80
13591;DHT22;6866;50.778;7.206;2023-03-23T08:49:43;14.50;88.80
13591;DHT22;6866;50.778;7.206;2023-03-23T08:52:09;14.50;86.90
13591;DHT22;6866;50.778;7.206;2023-03-23T08:54:34;14.50;87.40
13591;DHT22;6866;50.778;7.206;2023-03-23T08:57:01;14.60;87.20
13591;DHT22;6866;50.778;7.206;2023-03-23T08:59:27;14.60;88.40
13591;DHT22;6866;50.778;7.206;2023-03-23T09:01:53;14.70;87.30
13591;DHT22;6866;50.778;7.206;2023-03-23T09:04:18;14.70;86.30
13591;DHT22;6866;50.778;7.206;2023-03-23T09:06:44;14.80;86.60
13591;DHT22;6866;50.778;7.206;2023-03-23T09:09:11;14.90;85.40
13591;DHT22;6866;50.778;7.206;2023-03-23T09:11:37;14.90;85.50
13591;DHT22;6866;50.778;7.206;2023-03-23T09:14:04;14.90;85.40
13591;DHT22;6866;50.778;7.206;2023-03-23T09:16:31;14.90;85.40
13591;DHT22;6866;50.778;7.206;2023-03-23T09:18:58;14.90;86.10
13591;DHT22;6866;50.778;7.206;2023-03-23T09:21:25;14.90;85.50
13591;DHT22;6866;50.778;7.206;2023-03-23T09:23:51;14.90;84.40
13591;DHT22;6866;50.778;7.206;2023-03-23T09:26:17;14.80;84.00
13591;DHT22;6866;50.778;7.206;2023-03-23T09:28:43;14.80;83.50
13591;DHT22;6866;50.778;7.206;2023-03-23T09:31:11;14.70;84.00
13591;DHT22;6866;50.778;7.206;2023-03-23T09:33:37;14.80;85.10
13591;DHT22;6866;50.778;7.206;2023-03-23T09:36:03;14.80;84.10
13591;DHT22;6866;50.778;7.206;2023-03-23T09:38:31;14.70;83.90
13591;DHT22;6866;50.778;7.206;2023-03-23T09:43:40;14.80;83.30
13591;DHT22;6866;50.778;7.206;2023-03-23T09:46:40;14.80;84.00
13591;DHT22;6866;50.778;7.206;2023-03-23T09:49:15;14.90;80.20
13591;DHT22;6866;50.778;7.206;2023-03-23T09:51:56;14.90;81.80
13591;DHT22;6866;50.778;7.206;2023-03-23T09:54:29;14.90;82.40
13591;DHT22;6866;50.778;7.206;2023-03-23T09:56:58;14.90;83.90
13591;DHT22;6866;50.778;7.206;2023-03-23T09:59:27;14.80;83.20
13591;DHT22;6866;50.778;7.206;2023-03-23T10:01:57;14.80;83.40
13591;DHT22;6866;50.778;7.206;2023-03-23T10:09:39;14.80;88.90
13591;DHT22;6866;50.778;7.206;2023-03-23T10:17:37;15.00;89.20
13591;DHT22;6866;50.778;7.206;2023-03-23T10:23:05;15.30;87.50
13591;DHT22;6866;50.778;7.206;2023-03-23T10:25:37;15.40;84.80
13591;DHT22;6866;50.778;7.206;2023-03-23T10:28:13;15.30;83.90
13591;DHT22;6866;50.778;7.206;2023-03-23T10:30:54;15.30;85.70
13591;DHT22;6866;50.778;7.206;2023-03-23T10:33:25;15.40;84.70
13591;DHT22;6866;50.778;7.206;2023-03-23T10:38:26;15.30;83.30
13591;DHT22;6866;50.778;7.206;2023-03-23T10:40:57;15.30;86.30
13591;DHT22;6866;50.778;7.206;2023-03-23T10:43:24;15.10;87.60
13591;DHT22;6866;50.778;7.206;2023-03-23T10:45:57;15.10;90.40
13591;DHT22;6866;50.778;7.206;2023-03-23T10:48:37;15.10;88.10
13591;DHT22;6866;50.778;7.206;2023-03-23T10:51:05;15.00;90.50
13591;DHT22;6866;50.778;7.206;2023-03-23T10:53:37;15.00;90.90
13591;DHT22;6866;50.778;7.206;2023-03-23T10:56:04;15.10;90.20
13591;DHT22;6866;50.778;7.206;2023-03-23T10:58:35;15.10;91.10
13591;DHT22;6866;50.778;7.206;2023-03-23T11:01:04;15.20;90.50
13591;DHT22;6866;50.778;7.206;2023-03-23T11:03:44;15.30;90.30
13591;DHT22;6866;50.778;7.206;2023-03-23T11:06:17;15.40;90.00
13591;DHT22;6866;50.778;7.206;2023-03-23T11:09:01;15.30;90.50
13591;DHT22;6866;50.778;7.206;2023-03-23T11:11:31;15.40;91.10
13591;DHT22;6866;50.778;7.206;2023-03-23T11:14:16;15.20;90.70
13591;DHT22;6866;50.778;7.206;2023-03-23T11:17:05;15.20;91.80
13591;DHT22;6866;50.778;7.206;2023-03-23T11:19:36;15.20;91.90
13591;DHT22;6866;50.778;7.206;2023-03-23T11:22:06;15.30;91.50
13591;DHT22;6866;50.778;7.206;2023-03-23T11:24:40;15.40;91.40
13591;DHT22;6866;50.778;7.206;2023-03-23T11:27:07;15.40;91.60
13591;DHT22;6866;50.778;7.206;2023-03-23T11:29:34;15.40;90.80
13591;DHT22;6866;50.778;7.206;2023-03-23T11:34:34;15.40;90.40
13591;DHT22;6866;50.778;7.206;2023-03-23T11:37:05;15.60;90.10
13591;DHT22;6866;50.778;7.206;2023-03-23T11:39:32;15.80;88.40
13591;DHT22;6866;50.778;7.206;2023-03-23T11:42:00;15.90;88.90
13591;DHT22;6866;50.778;7.206;2023-03-23T11:44:41;16.30;86.00
13591;DHT22;6866;50.778;7.206;2023-03-23T11:47:29;16.70;84.30
13591;DHT22;6866;50.778;7.206;2023-03-23T11:50:14;16.70;80.50
13591;DHT22;6866;50.778;7.206;2023-03-23T11:55:52;16.90;76.70
13591;DHT22;6866;50.778;7.206;2023-03-23T11:58:21;17.00;76.60
13591;DHT22;6866;50.778;7.206;2023-03-23T12:00:57;17.00;75.50
13591;DHT22;6866;50.778;7.206;2023-03-23T12:06:15;16.90;73.10
13591;DHT22;6866;50.778;7.206;2023-03-23T12:09:08;16.80;74.60
13591;DHT22;6866;50.778;7.206;2023-03-23T12:11:53;16.50;73.90
13591;DHT22;6866;50.778;7.206;2023-03-23T12:20:10;16.80;73.00
13591;DHT22;6866;50.778;7.206;2023-03-23T12:23:08;17.00;72.20
13591;DHT22;6866;50.778;7.206;2023-03-23T12:25:54;17.20;71.00
13591;DHT22;6866;50.778;7.206;2023-03-23T12:40:03;16.90;70.60
13591;DHT22;6866;50.778;7.206;2023-03-23T12:45:39;16.60;71.70
13591;DHT22;6866;50.778;7.206;2023-03-23T12:48:20;16.50;71.90
13591;DHT22;6866;50.778;7.206;2023-03-23T12:51:11;16.60;72.00
13591;DHT22;6866;50.778;7.206;2023-03-23T12:53:56;16.50;71.20
13591;DHT22;6866;50.778;7.206;2023-03-23T12:59:45;16.30;72.50
13591;DHT22;6866;50.778;7.206;2023-03-23T13:02:18;16.30;72.90
13591;DHT22;6866;50.778;7.206;2023-03-23T13:04:50;16.20;73.90
13591;DHT22;6866;50.778;7.206;2023-03-23T13:07:25;16.10;74.40
13591;DHT22;6866;50.778;7.206;2023-03-23T13:12:21;16.10;73.80
13591;DHT22;6866;50.778;7.206;2023-03-23T13:23:34;15.90;77.30
13591;DHT22;6866;50.778;7.206;2023-03-23T13:26:06;15.90;77.10
13591;DHT22;6866;50.778;7.206;2023-03-23T13:31:21;16.00;77.10
13591;DHT22;6866;50.778;7.206;2023-03-23T13:33:52;16.10;76.00
13591;DHT22;6866;50.778;7.206;2023-03-23T13:36:37;16.20;75.50
13591;DHT22;6866;50.778;7.206;2023-03-23T13:39:26;16.30;74.60
13591;DHT22;6866;50.778;7.206;2023-03-23T13:47:36;16.40;72.90
13591;DHT22;6866;50.778;7.206;2023-03-23T13:52:50;16.50;73.20
13591;DHT22;6866;50.778;7.206;2023-03-23T14:08:01;16.50;72.40
13591;DHT22;6866;50.778;7.206;2023-03-23T14:13:15;16.50;73.20
13591;DHT22;6866;50.778;7.206;2023-03-23T14:16:02;16.60;72.10
13591;DHT22;6866;50.778;7.206;2023-03-23T14:18:36;16.60;72.30
13591;DHT22;6866;50.778;7.206;2023-03-23T14:21:03;16.60;71.10
13591;DHT22;6866;50.778;7.206;2023-03-23T14:23:34;16.60;72.70
13591;DHT22;6866;50.778;7.206;2023-03-23T14:26:02;16.50;73.60
13591;DHT22;6866;50.778;7.206;2023-03-23T14:28:37;16.40;72.50
13591;DHT22;6866;50.778;7.206;2023-03-23T14:31:03;16.40;72.60
13591;DHT22;6866;50.778;7.206;2023-03-23T14:33:29;16.30;72.80
13591;DHT22;6866;50.778;7.206;2023-03-23T14:35:58;16.30;72.90
13591;DHT22;6866;50.778;7.206;2023-03-23T14:38:25;16.20;73.90
13591;DHT22;6866;50.778;7.206;2023-03-23T14:41:03;16.20;73.40
13591;DHT22;6866;50.778;7.206;2023-03-23T14:43:30;16.20;73.90
13591;DHT22;6866;50.778;7.206;2023-03-23T14:45:58;16.20;73.70
13591;DHT22;6866;50.778;7.206;2023-03-23T14:48:25;16.20;75.40
13591;DHT22;6866;50.778;7.206;2023-03-23T14:50:55;16.10;74.50
13591;DHT22;6866;50.778;7.206;2023-03-23T14:53:34;16.10;75.20
13591;DHT22;6866;50.778;7.206;2023-03-23T14:56:03;16.10;77.00
13591;DHT22;6866;50.778;7.206;2023-03-23T14:58:30;16.10;76.60
13591;DHT22;6866;50.778;7.206;2023-03-23T15:01:00;16.10;76.70
13591;DHT22;6866;50.778;7.206;2023-03-23T15:03:28;16.00;77.20
13591;DHT22;6866;50.778;7.206;2023-03-23T15:05:58;16.00;77.90
13591;DHT22;6866;50.778;7.206;2023-03-23T15:08:27;16.00;77.90
13591;DHT22;6866;50.778;7.206;2023-03-23T15:13:47;16.20;77.60
13591;DHT22;6866;50.778;7.206;2023-03-23T15:16:22;16.30;76.60
13591;DHT22;6866;50.778;7.206;2023-03-23T15:18:54;16.40;77.20
13591;DHT22;6866;50.778;7.206;2023-03-23T15:21:33;16.40;75.10
13591;DHT22;6866;50.778;7.206;2023-03-23T15:24:00;16.60;73.10
13591;DHT22;6866;50.778;7.206;2023-03-23T15:26:41;16.60;72.00
13591;DHT22;6866;50.778;7.206;2023-03-23T15:31:32;16.70;71.40
13591;DHT22;6866;50.778;7.206;2023-03-23T15:34:03;16.60;72.60
13591;DHT22;6866;50.778;7.206;2023-03-23T15:36:33;16.70;72.00
13591;DHT22;6866;50.778;7.206;2023-03-23T15:38:59;16.70;73.00
13591;DHT22;6866;50.778;7.206;2023-03-23T15:41:27;16.60;73.40
13591;DHT22;6866;50.778;7.206;2023-03-23T15:43:55;16.70;73.50
13591;DHT22;6866;50.778;7.206;2023-03-23T15:46:27;16.60;73.20
13591;DHT22;6866;50.778;7.206;2023-03-23T15:51:27;16.60;73.00
13591;DHT22;6866;50.778;7.206;2023-03-23T15:53:54;16.60;71.40
13591;DHT22;6866;50.778;7.206;2023-03-23T15:56:20;16.60;72.00
13591;DHT22;6866;50.778;7.206;2023-03-23T15:58:46;16.60;72.40
13591;DHT22;6866;50.778;7.206;2023-03-23T16:03:49;16.70;72.30
13591;DHT22;6866;50.778;7.206;2023-03-23T16:06:18;16.60;70.80
13591;DHT22;6866;50.778;7.206;2023-03-23T16:08:44;16.50;70.20
13591;DHT22;6866;50.778;7.206;2023-03-23T16:11:12;16.50;69.80
13591;DHT22;6866;50.778;7.206;2023-03-23T16:13:38;16.50;70.70
13591;DHT22;6866;50.778;7.206;2023-03-23T16:16:06;16.50;70.80
13591;DHT22;6866;50.778;7.206;2023-03-23T16:18:34;16.50;70.50
13591;DHT22;6866;50.778;7.206;2023-03-23T16:21:00;16.50;70.90
13591;DHT22;6866;50.778;7.206;2023-03-23T16:23:26;16.40;71.00
13591;DHT22;6866;50.778;7.206;2023-03-23T16:25:51;16.40;69.50
13591;DHT22;6866;50.778;7.206;2023-03-23T16:28:17;16.30;69.50
13591;DHT22;6866;50.778;7.206;2023-03-23T16:30:45;16.30;69.80
13591;DHT22;6866;50.778;7.206;2023-03-23T16:33:11;16.20;70.10
13591;DHT22;6866;50.778;7.206;2023-03-23T16:35:37;16.20;70.50
13591;DHT22;6866;50.778;7.206;2023-03-23T16:38:03;16.20;70.90
13591;DHT22;6866;50.778;7.206;2023-03-23T16:40:29;16.10;71.20
13591;DHT22;6866;50.778;7.206;2023-03-23T16:42:55;16.00;71.30
13591;DHT22;6866;50.778;7.206;2023-03-23T16:45:20;16.00;71.50
13591;DHT22;6866;50.778;7.206;2023-03-23T16:47:46;15.90;73.40
13591;DHT22;6866;50.778;7.206;2023-03-23T16:50:14;15.90;74.10
13591;DHT22;6866;50.778;7.206;2023-03-23T16:52:42;15.80;72.40
13591;DHT22;6866;50.778;7.206;2023-03-23T16:55:09;15.80;73.30
13591;DHT22;6866;50.778;7.206;2023-03-23T16:57:35;15.80;74.00
13591;DHT22;6866;50.778;7.206;2023-03-23T17:00:12;15.80;73.10
13591;DHT22;6866;50.778;7.206;2023-03-23T17:02:41;15.70;72.30
13591;DHT22;6866;50.778;7.206;2023-03-23T17:05:08;15.70;72.90
13591;DHT22;6866;50.778;7.206;2023-03-23T17:07:35;15.70;72.30
13591;DHT22;6866;50.778;7.206;2023-03-23T17:10:01;15.60;71.80
13591;DHT22;6866;50.778;7.206;2023-03-23T17:12:27;15.60;72.30
13591;DHT22;6866;50.778;7.206;2023-03-23T17:14:52;15.50;72.70
13591;DHT22;6866;50.778;7.206;2023-03-23T17:17:18;15.50;72.10
13591;DHT22;6866;50.778;7.206;2023-03-23T17:19:44;15.40;72.70
13591;DHT22;6866;50.778;7.206;2023-03-23T17:22:09;15.40;73.20
13591;DHT22;6866;50.778;7.206;2023-03-23T17:24:35;15.30;72.70
13591;DHT22;6866;50.778;7.206;2023-03-23T17:27:00;15.20;73.30
13591;DHT22;6866;50.778;7.206;2023-03-23T17:29:26;15.20;75.00
13591;DHT22;6866;50.778;7.206;2023-03-23T17:31:51;15.20;75.00
13591;DHT22;6866;50.778;7.206;2023-03-23T17:34:17;15.10;73.60
13591;DHT22;6866;50.778;7.206;2023-03-23T17:36:43;15.10;74.20
13591;DHT22;6866;50.778;7.206;2023-03-23T17:39:09;15.10;75.00
13591;DHT22;6866;50.778;7.206;2023-03-23T17:41:34;15.10;75.00
13591;DHT22;6866;50.778;7.206;2023-03-23T17:44:00;15.10;75.10
13591;DHT22;6866;50.778;7.206;2023-03-23T17:46:25;15.00;75.70
13591;DHT22;6866;50.778;7.206;2023-03-23T17:48:51;15.00;76.20
13591;DHT22;6866;50.778;7.206;2023-03-23T17:51:17;15.00;75.80
13591;DHT22;6866;50.778;7.206;2023-03-23T17:53:43;15.00;77.30